Terminal Aerodrome Forecast
Issued by NWS

Home | Current Version | Previous Version | Text Only | Print | Product List | Glossary On
Versions: 1 2 3 4 5 6 7 8 9 10 11 12 13 14 15 16 17 18
000
FTUS46 KSEW 291120
TAFPAE
TAF
KPAE 291120Z 2912/3012 21006KT P6SM VCSH SCT006 OVC012
      TEMPO 2912/2915 BKN006 OVC012
     FM291700 31007KT P6SM BKN022 BKN035
     FM292000 35006KT P6SM BKN035
     FM300400 03005KT P6SM SCT040 SCT050=

USA.gov is the U.S. government's official web portal to all federal, state and local government web resources and services.